Filia Ariea — PIET — position and weather

sailwx.info

Track history (hours):
 
Tides and Currents Weather Stations Pressure Air Temp Water Temp Dewpoint Dewpoint Depression Visibility Wind Speed Wind Dir Waves Ship Positions

Filia Ariea

Last reported at 2017-Aug-17 18:20 UTC. Time now 2017-Aug-18 03:03 UTC.
Position N 43°29' W 002°51'.

Length 90 m; draft 3.1 m.

Type: Cargo ship. MMSI: 244662000.

Date/timePositionNaut miles runAvg speedWind from/ knotsBaromVisibWave heightAir tempDewpointWater temp
2017-Aug-17 18:20N 43°29' W 002°51'712.3
2017-Aug-17 17:46N 43°28' W 002°42'412.4
2017-Aug-17 17:28N 43°27' W 002°37'612.4
2017-Aug-17 16:58N 43°26' W 002°28'612.1
2017-Aug-17 16:30N 43°25' W 002°21'1512.0
2017-Aug-17 15:15N 43°22' W 002°01'  
2017-Aug-14 22:04N 48°37' W 005°16'2 9.7
2017-Aug-14 21:50N 48°38' W 005°14'3 9.3
2017-Aug-14 21:30N 48°40' W 005°10'7 8.9
2017-Aug-14 20:42N 48°45' W 005°02'3 8.8
2017-Aug-14 20:22N 48°47' W 004°59'12 8.7
2017-Aug-14 18:56N 48°55' W 004°44'3610.8
2017-Aug-14 15:35N 49°18' W 004°02'111.7
2017-Aug-14 15:29N 49°19' W 004°01'611.6
2017-Aug-14 15:00N 49°23' W 003°54'611.3
2017-Aug-14 14:30N 49°27' W 003°49'511.0
2017-Aug-14 14:00N 49°31' W 003°43'510.8
2017-Aug-14 13:30N 49°35' W 003°37'510.2
2017-Aug-14 13:00N 49°38' W 003°31'5 9.8
2017-Aug-14 12:30N 49°41' W 003°25'5 9.4
2017-Aug-14 12:00N 49°44' W 003°19'5 9.1
2017-Aug-14 11:30N 49°47' W 003°14'5 9.1
2017-Aug-14 11:00N 49°50' W 003°08'5 9.1
2017-Aug-14 10:30N 49°52' W 003°03'5 9.2
2017-Aug-14 10:00N 49°55' W 002°57'5 9.6
2017-Aug-14 09:30N 49°58' W 002°51'510.7
2017-Aug-14 09:00N 49°59' W 002°43'510.9
2017-Aug-14 08:30N 50°01' W 002°35'611.2
2017-Aug-14 07:56N 50°04' W 002°26'512.2
2017-Aug-14 07:30N 50°05' W 002°18'613.1
2017-Aug-14 07:00N 50°07' W 002°09'713.7
2017-Aug-14 06:30N 50°10' W 001°59'1114.0
2017-Aug-14 05:43N 50°13' W 001°42'3712.6
2017-Aug-14 02:46N 50°23' W 000°47'3 9.8
2017-Aug-14 02:29N 50°24' W 000°42'5 9.4
2017-Aug-14 01:59N 50°25' W 000°35'8 9.2
2017-Aug-14 01:09N 50°27' W 000°24'2 9.1
2017-Aug-14 00:57N 50°28' W 000°21'4 9.0
2017-Aug-14 00:30N 50°29' W 000°15'5 9.1
2017-Aug-14 00:00N 50°30' W 000°08'5 9.3
2017-Aug-13 23:31N 50°32' W 000°01'5 9.7
2017-Aug-13 23:00N 50°33' E 000°06'510.3
2017-Aug-13 22:30N 50°35' E 000°14'611.0
2017-Aug-13 22:00N 50°36' E 000°23'611.9
2017-Aug-13 21:31N 50°38' E 000°31'612.2
2017-Aug-13 21:00N 50°41' E 000°39'612.3
2017-Aug-13 20:31N 50°45' E 000°47'612.2
2017-Aug-13 20:00N 50°49' E 000°55'611.8
2017-Aug-13 19:29N 50°54' E 001°01'610.9
2017-Aug-13 18:54N 50°60' E 001°04'1 1.0
2017-Aug-13 17:44N 51°01' E 001°05'0 0.0
2017-Aug-13 17:26N 51°01' E 001°05'0 0.0
2017-Aug-13 16:59N 51°01' E 001°05'0 0.0
2017-Aug-13 14:31N 51°01' E 001°05'0 0.0
2017-Aug-13 14:16N 51°01' E 001°05'0 0.0
2017-Aug-13 12:54N 51°01' E 001°04'0 0.0
2017-Aug-13 12:30N 51°01' E 001°04'0 0.0
2017-Aug-13 11:54N 51°01' E 001°05'0 0.0
2017-Aug-13 11:30N 51°01' E 001°05'0 0.0
2017-Aug-13 10:53N 51°01' E 001°05'0 0.0
2017-Aug-13 02:02N 51°01' E 001°05'0 0.0
2017-Aug-13 01:55N 51°01' E 001°05'0 0.0
2017-Aug-13 01:28N 51°01' E 001°05'0 0.0
2017-Aug-13 00:58N 51°01' E 001°05'0 0.0
2017-Aug-13 00:25N 51°01' E 001°05'0 0.1
2017-Aug-12 23:41N 51°01' E 001°05'0 0.6
2017-Aug-12 23:30N 51°01' E 001°05'5 9.9
2017-Aug-12 22:58N 51°02' E 001°13'612.3
2017-Aug-12 22:30N 51°04' E 001°21'612.9
2017-Aug-12 22:01N 51°07' E 001°30'713.3
2017-Aug-12 21:30N 51°11' E 001°39'612.6
2017-Aug-12 21:01N 51°15' E 001°46'612.0
2017-Aug-12 20:31N 51°20' E 001°51'611.2
2017-Aug-12 20:01N 51°25' E 001°56'510.5
2017-Aug-12 19:30N 51°29' E 002°00'510.1
2017-Aug-12 19:00N 51°33' E 002°06'5 9.8
2017-Aug-12 18:31N 51°37' E 002°11'5 9.7
2017-Aug-12 18:00N 51°41' E 002°16'5 9.3
2017-Aug-12 17:30N 51°44' E 002°21'10610.4
2017-Aug-12 07:20N 53°05' E 004°13'3 8.8
2017-Aug-12 07:00N 53°07' E 004°16'5 8.8
2017-Aug-12 06:29N 53°11' E 004°22'4 8.0
2017-Aug-12 06:01N 53°14' E 004°25'4 8.3
2017-Aug-12 05:30N 53°17' E 004°28'128 9.5
2017-Aug-11 16:07N 54°01' E 007°51'211.0
2017-Aug-11 15:55N 54°01' E 007°55'510.9
2017-Aug-11 15:28N 54°01' E 008°03'510.7
2017-Aug-11 15:00N 54°00' E 008°12'1310.1
2017-Aug-11 13:43N 53°58' E 008°33'2 9.0
2017-Aug-11 13:28N 53°58' E 008°37'4 7.8
2017-Aug-11 13:00N 53°55' E 008°41'4 7.9
2017-Aug-11 12:30N 53°52' E 008°45'4 7.2
2017-Aug-11 12:00N 53°50' E 008°51'4 8.3
2017-Aug-11 11:30N 53°51' E 008°58'5 9.6
2017-Aug-11 11:00N 53°53' E 009°05'2 4.7
2017-Aug-11 10:30N 53°54' E 009°09'0 0.7
2017-Aug-11 10:00N 53°54' E 009°09'1 2.6
2017-Aug-11 09:30N 53°55' E 009°11'0 0.0
2017-Aug-11 09:00N 53°55' E 009°11'0 0.0
2017-Aug-11 08:30N 53°55' E 009°11'0 0.0
2017-Aug-11 08:00N 53°55' E 009°11'0 0.0
2017-Aug-11 07:30N 53°55' E 009°11'0 0.0
2017-Aug-11 07:00N 53°55' E 009°11'0 0.0
2017-Aug-11 06:30N 53°55' E 009°11'0 0.0
2017-Aug-11 06:00N 53°55' E 009°11'2 5.0
2017-Aug-11 05:30N 53°57' E 009°14'4 8.6
2017-Aug-11 05:00N 54°00' E 009°18'4 8.4
2017-Aug-11 04:30N 54°04' E 009°19'4 8.4
2017-Aug-11 04:00N 54°08' E 009°21'6 8.4
2017-Aug-11 03:20N 54°11' E 009°29'3 8.3
2017-Aug-11 03:00N 54°12' E 009°33'3 5.7
2017-Aug-11 02:30N 54°14' E 009°37'4 7.0
2017-Aug-11 01:52N 54°18' E 009°41'5 8.2
2017-Aug-11 01:17N 54°21' E 009°47'23 5.9
2017-Aug-10 21:20N 54°31' E 010°23'310.0
2017-Aug-10 21:00N 54°33' E 010°28'510.1
2017-Aug-10 20:31N 54°34' E 010°36'510.3
2017-Aug-10 20:00N 54°35' E 010°45'611.3
2017-Aug-10 19:30N 54°36' E 010°55'611.6
2017-Aug-10 19:00N 54°36' E 011°05'611.4
2017-Aug-10 18:30N 54°35' E 011°15'611.5
2017-Aug-10 18:00N 54°33' E 011°24'611.2
2017-Aug-10 17:30N 54°31' E 011°33'511.0
2017-Aug-10 17:00N 54°29' E 011°42'611.1
2017-Aug-10 16:30N 54°28' E 011°51'611.1
2017-Aug-10 16:00N 54°27' E 012°01'510.7
2017-Aug-10 15:30N 54°28' E 012°10'510.7
2017-Aug-10 15:00N 54°32' E 012°15'1810.9
2017-Aug-10 13:20N 54°40' E 012°44'411.2
2017-Aug-10 12:57N 54°42' E 012°51'1411.5
2017-Aug-10 11:44N 54°45' E 013°14'311.4
2017-Aug-10 11:31N 54°46' E 013°18'611.2
2017-Aug-10 11:00N 54°48' E 013°28'510.9
2017-Aug-10 10:30N 54°49' E 013°37'510.8
2017-Aug-10 10:00N 54°51' E 013°46'611.2
2017-Aug-10 09:28N 54°53' E 013°56'511.4
2017-Aug-10 09:01N 54°54' E 014°04'611.2
2017-Aug-10 08:31N 54°55' E 014°14'611.1
2017-Aug-10 08:00N 54°55' E 014°24'611.0
2017-Aug-10 07:30N 54°55' E 014°33'510.9
2017-Aug-10 07:00N 54°55' E 014°43'510.9
2017-Aug-10 06:30N 54°56' E 014°52'611.0
2017-Aug-10 06:00N 54°56' E 015°02'510.9
2017-Aug-10 05:30N 54°57' E 015°11'611.0
2017-Aug-10 04:59N 54°58' E 015°21'611.2
2017-Aug-10 04:25N 54°59' E 015°32'511.3
2017-Aug-10 04:00N 54°60' E 015°40'611.1
2017-Aug-10 03:30N 55°01' E 015°49'611.0
2017-Aug-10 02:59N 55°02' E 015°59'1611.1
2017-Aug-10 01:33N 55°06' E 016°26'111.2
2017-Aug-10 01:30N 55°06' E 016°27'611.1
2017-Aug-10 01:00N 55°06' E 016°37'611.1
2017-Aug-10 00:30N 55°07' E 016°47'511.2
2017-Aug-10 00:00N 55°08' E 016°56'611.3
2017-Aug-09 23:30N 55°09' E 017°06'611.4
2017-Aug-09 23:00N 55°10' E 017°15'611.3
2017-Aug-09 22:30N 55°11' E 017°25'611.3
2017-Aug-09 22:00N 55°13' E 017°35'611.4
2017-Aug-09 21:31N 55°13' E 017°45'611.4
2017-Aug-09 21:01N 55°14' E 017°55'611.4
2017-Aug-09 20:31N 55°15' E 018°04'611.4
2017-Aug-09 20:01N 55°17' E 018°14'611.6
2017-Aug-09 19:30N 55°18' E 018°24'611.4
2017-Aug-09 19:01N 55°19' E 018°34'510.9
2017-Aug-09 18:31N 55°20' E 018°43'510.8
2017-Aug-09 18:01N 55°21' E 018°53'810.9
2017-Aug-09 17:16N 55°23' E 019°06'71 2.2
2017-Aug-08 09:17N 55°43' E 021°07'0 0.0
2017-Aug-08 08:29N 55°43' E 021°07'0 0.0
2017-Aug-08 07:59N 55°43' E 021°07'31 4.7
2017-Aug-08 01:29N 55°25' E 020°23'511.0
2017-Aug-08 01:00N 55°21' E 020°17'511.0
2017-Aug-08 00:30N 55°17' E 020°09'611.1
2017-Aug-08 00:00N 55°14' E 020°02'611.0
2017-Aug-07 23:28N 55°10' E 019°55'510.9
2017-Aug-07 23:01N 55°06' E 019°48'611.0
2017-Aug-07 22:30N 55°02' E 019°41'611.2
2017-Aug-07 22:00N 54°59' E 019°34'611.4
2017-Aug-07 21:31N 54°55' E 019°27'611.5
2017-Aug-07 21:00N 54°51' E 019°19'611.6
2017-Aug-07 20:30N 54°47' E 019°12'611.4
2017-Aug-07 20:00N 54°43' E 019°04'611.1
2017-Aug-07 19:31N 54°39' E 018°57'611.6
2017-Aug-07 19:00N 54°34' E 018°52'510.5
2017-Aug-07 18:30N 54°32' E 018°44'  
Track history (hours):
 
Tides and Currents Weather Stations Pressure Air Temp Water Temp Dewpoint Dewpoint Depression Visibility Wind Speed Wind Dir Waves Ship Positions

Filia Ariea

Last reported at 2017-Aug-17 18:20 UTC. Time now 2017-Aug-18 03:03 UTC.
Position N 43°29' W 002°51'.

Length 90 m; draft 3.1 m.

Type: Cargo ship. MMSI: 244662000.

Date/timePositionNaut miles runAvg speedWind from/ knotsBaromVisibWave heightAir tempDewpointWater temp
2017-Aug-17 18:20N 43°29' W 002°51'712.3
2017-Aug-17 17:46N 43°28' W 002°42'412.4
2017-Aug-17 17:28N 43°27' W 002°37'612.4
2017-Aug-17 16:58N 43°26' W 002°28'612.1
2017-Aug-17 16:30N 43°25' W 002°21'1512.0
2017-Aug-17 15:15N 43°22' W 002°01'  
2017-Aug-14 22:04N 48°37' W 005°16'2 9.7
2017-Aug-14 21:50N 48°38' W 005°14'3 9.3
2017-Aug-14 21:30N 48°40' W 005°10'7 8.9
2017-Aug-14 20:42N 48°45' W 005°02'3 8.8
2017-Aug-14 20:22N 48°47' W 004°59'12 8.7
2017-Aug-14 18:56N 48°55' W 004°44'3610.8
2017-Aug-14 15:35N 49°18' W 004°02'111.7
2017-Aug-14 15:29N 49°19' W 004°01'611.6
2017-Aug-14 15:00N 49°23' W 003°54'611.3
2017-Aug-14 14:30N 49°27' W 003°49'511.0
2017-Aug-14 14:00N 49°31' W 003°43'510.8
2017-Aug-14 13:30N 49°35' W 003°37'510.2
2017-Aug-14 13:00N 49°38' W 003°31'5 9.8
2017-Aug-14 12:30N 49°41' W 003°25'5 9.4
2017-Aug-14 12:00N 49°44' W 003°19'5 9.1
2017-Aug-14 11:30N 49°47' W 003°14'5 9.1
2017-Aug-14 11:00N 49°50' W 003°08'5 9.1
2017-Aug-14 10:30N 49°52' W 003°03'5 9.2
2017-Aug-14 10:00N 49°55' W 002°57'5 9.6
2017-Aug-14 09:30N 49°58' W 002°51'510.7
2017-Aug-14 09:00N 49°59' W 002°43'510.9
2017-Aug-14 08:30N 50°01' W 002°35'611.2
2017-Aug-14 07:56N 50°04' W 002°26'512.2
2017-Aug-14 07:30N 50°05' W 002°18'613.1
2017-Aug-14 07:00N 50°07' W 002°09'713.7
2017-Aug-14 06:30N 50°10' W 001°59'1114.0
2017-Aug-14 05:43N 50°13' W 001°42'3712.6
2017-Aug-14 02:46N 50°23' W 000°47'3 9.8
2017-Aug-14 02:29N 50°24' W 000°42'5 9.4
2017-Aug-14 01:59N 50°25' W 000°35'8 9.2
2017-Aug-14 01:09N 50°27' W 000°24'2 9.1
2017-Aug-14 00:57N 50°28' W 000°21'4 9.0
2017-Aug-14 00:30N 50°29' W 000°15'5 9.1
2017-Aug-14 00:00N 50°30' W 000°08'5 9.3
2017-Aug-13 23:31N 50°32' W 000°01'5 9.7
2017-Aug-13 23:00N 50°33' E 000°06'510.3
2017-Aug-13 22:30N 50°35' E 000°14'611.0
2017-Aug-13 22:00N 50°36' E 000°23'611.9
2017-Aug-13 21:31N 50°38' E 000°31'612.2
2017-Aug-13 21:00N 50°41' E 000°39'612.3
2017-Aug-13 20:31N 50°45' E 000°47'612.2
2017-Aug-13 20:00N 50°49' E 000°55'611.8
2017-Aug-13 19:29N 50°54' E 001°01'610.9
2017-Aug-13 18:54N 50°60' E 001°04'1 1.0
2017-Aug-13 17:44N 51°01' E 001°05'0 0.0
2017-Aug-13 17:26N 51°01' E 001°05'0 0.0
2017-Aug-13 16:59N 51°01' E 001°05'0 0.0
2017-Aug-13 14:31N 51°01' E 001°05'0 0.0
2017-Aug-13 14:16N 51°01' E 001°05'0 0.0
2017-Aug-13 12:54N 51°01' E 001°04'0 0.0
2017-Aug-13 12:30N 51°01' E 001°04'0 0.0
2017-Aug-13 11:54N 51°01' E 001°05'0 0.0
2017-Aug-13 11:30N 51°01' E 001°05'0 0.0
2017-Aug-13 10:53N 51°01' E 001°05'0 0.0
2017-Aug-13 02:02N 51°01' E 001°05'0 0.0
2017-Aug-13 01:55N 51°01' E 001°05'0 0.0
2017-Aug-13 01:28N 51°01' E 001°05'0 0.0
2017-Aug-13 00:58N 51°01' E 001°05'0 0.0
2017-Aug-13 00:25N 51°01' E 001°05'0 0.1
2017-Aug-12 23:41N 51°01' E 001°05'0 0.6
2017-Aug-12 23:30N 51°01' E 001°05'5 9.9
2017-Aug-12 22:58N 51°02' E 001°13'612.3
2017-Aug-12 22:30N 51°04' E 001°21'612.9
2017-Aug-12 22:01N 51°07' E 001°30'713.3
2017-Aug-12 21:30N 51°11' E 001°39'612.6
2017-Aug-12 21:01N 51°15' E 001°46'612.0
2017-Aug-12 20:31N 51°20' E 001°51'611.2
2017-Aug-12 20:01N 51°25' E 001°56'510.5
2017-Aug-12 19:30N 51°29' E 002°00'510.1
2017-Aug-12 19:00N 51°33' E 002°06'5 9.8
2017-Aug-12 18:31N 51°37' E 002°11'5 9.7
2017-Aug-12 18:00N 51°41' E 002°16'5 9.3
2017-Aug-12 17:30N 51°44' E 002°21'10610.4
2017-Aug-12 07:20N 53°05' E 004°13'3 8.8
2017-Aug-12 07:00N 53°07' E 004°16'5 8.8
2017-Aug-12 06:29N 53°11' E 004°22'4 8.0
2017-Aug-12 06:01N 53°14' E 004°25'4 8.3
2017-Aug-12 05:30N 53°17' E 004°28'128 9.5
2017-Aug-11 16:07N 54°01' E 007°51'211.0
2017-Aug-11 15:55N 54°01' E 007°55'510.9
2017-Aug-11 15:28N 54°01' E 008°03'510.7
2017-Aug-11 15:00N 54°00' E 008°12'1310.1
2017-Aug-11 13:43N 53°58' E 008°33'2 9.0
2017-Aug-11 13:28N 53°58' E 008°37'4 7.8
2017-Aug-11 13:00N 53°55' E 008°41'4 7.9
2017-Aug-11 12:30N 53°52' E 008°45'4 7.2
2017-Aug-11 12:00N 53°50' E 008°51'4 8.3
2017-Aug-11 11:30N 53°51' E 008°58'5 9.6
2017-Aug-11 11:00N 53°53' E 009°05'2 4.7
2017-Aug-11 10:30N 53°54' E 009°09'0 0.7
2017-Aug-11 10:00N 53°54' E 009°09'1 2.6
2017-Aug-11 09:30N 53°55' E 009°11'0 0.0
2017-Aug-11 09:00N 53°55' E 009°11'0 0.0
2017-Aug-11 08:30N 53°55' E 009°11'0 0.0
2017-Aug-11 08:00N 53°55' E 009°11'0 0.0
2017-Aug-11 07:30N 53°55' E 009°11'0 0.0
2017-Aug-11 07:00N 53°55' E 009°11'0 0.0
2017-Aug-11 06:30N 53°55' E 009°11'0 0.0
2017-Aug-11 06:00N 53°55' E 009°11'2 5.0
2017-Aug-11 05:30N 53°57' E 009°14'4 8.6
2017-Aug-11 05:00N 54°00' E 009°18'4 8.4
2017-Aug-11 04:30N 54°04' E 009°19'4 8.4
2017-Aug-11 04:00N 54°08' E 009°21'6 8.4
2017-Aug-11 03:20N 54°11' E 009°29'3 8.3
2017-Aug-11 03:00N 54°12' E 009°33'3 5.7
2017-Aug-11 02:30N 54°14' E 009°37'4 7.0
2017-Aug-11 01:52N 54°18' E 009°41'5 8.2
2017-Aug-11 01:17N 54°21' E 009°47'23 5.9
2017-Aug-10 21:20N 54°31' E 010°23'310.0
2017-Aug-10 21:00N 54°33' E 010°28'510.1
2017-Aug-10 20:31N 54°34' E 010°36'510.3
2017-Aug-10 20:00N 54°35' E 010°45'611.3
2017-Aug-10 19:30N 54°36' E 010°55'611.6
2017-Aug-10 19:00N 54°36' E 011°05'611.4
2017-Aug-10 18:30N 54°35' E 011°15'611.5
2017-Aug-10 18:00N 54°33' E 011°24'611.2
2017-Aug-10 17:30N 54°31' E 011°33'511.0
2017-Aug-10 17:00N 54°29' E 011°42'611.1
2017-Aug-10 16:30N 54°28' E 011°51'611.1
2017-Aug-10 16:00N 54°27' E 012°01'510.7
2017-Aug-10 15:30N 54°28' E 012°10'510.7
2017-Aug-10 15:00N 54°32' E 012°15'1810.9
2017-Aug-10 13:20N 54°40' E 012°44'411.2
2017-Aug-10 12:57N 54°42' E 012°51'1411.5
2017-Aug-10 11:44N 54°45' E 013°14'311.4
2017-Aug-10 11:31N 54°46' E 013°18'611.2
2017-Aug-10 11:00N 54°48' E 013°28'510.9
2017-Aug-10 10:30N 54°49' E 013°37'510.8
2017-Aug-10 10:00N 54°51' E 013°46'611.2
2017-Aug-10 09:28N 54°53' E 013°56'511.4
2017-Aug-10 09:01N 54°54' E 014°04'611.2
2017-Aug-10 08:31N 54°55' E 014°14'611.1
2017-Aug-10 08:00N 54°55' E 014°24'611.0
2017-Aug-10 07:30N 54°55' E 014°33'510.9
2017-Aug-10 07:00N 54°55' E 014°43'510.9
2017-Aug-10 06:30N 54°56' E 014°52'611.0
2017-Aug-10 06:00N 54°56' E 015°02'510.9
2017-Aug-10 05:30N 54°57' E 015°11'611.0
2017-Aug-10 04:59N 54°58' E 015°21'611.2
2017-Aug-10 04:25N 54°59' E 015°32'511.3
2017-Aug-10 04:00N 54°60' E 015°40'611.1
2017-Aug-10 03:30N 55°01' E 015°49'611.0
2017-Aug-10 02:59N 55°02' E 015°59'1611.1
2017-Aug-10 01:33N 55°06' E 016°26'111.2
2017-Aug-10 01:30N 55°06' E 016°27'611.1
2017-Aug-10 01:00N 55°06' E 016°37'611.1
2017-Aug-10 00:30N 55°07' E 016°47'511.2
2017-Aug-10 00:00N 55°08' E 016°56'611.3
2017-Aug-09 23:30N 55°09' E 017°06'611.4
2017-Aug-09 23:00N 55°10' E 017°15'611.3
2017-Aug-09 22:30N 55°11' E 017°25'611.3
2017-Aug-09 22:00N 55°13' E 017°35'611.4
2017-Aug-09 21:31N 55°13' E 017°45'611.4
2017-Aug-09 21:01N 55°14' E 017°55'611.4
2017-Aug-09 20:31N 55°15' E 018°04'611.4
2017-Aug-09 20:01N 55°17' E 018°14'611.6
2017-Aug-09 19:30N 55°18' E 018°24'611.4
2017-Aug-09 19:01N 55°19' E 018°34'510.9
2017-Aug-09 18:31N 55°20' E 018°43'510.8
2017-Aug-09 18:01N 55°21' E 018°53'810.9
2017-Aug-09 17:16N 55°23' E 019°06'71 2.2
2017-Aug-08 09:17N 55°43' E 021°07'0 0.0
2017-Aug-08 08:29N 55°43' E 021°07'0 0.0
2017-Aug-08 07:59N 55°43' E 021°07'31 4.7
2017-Aug-08 01:29N 55°25' E 020°23'511.0
2017-Aug-08 01:00N 55°21' E 020°17'511.0
2017-Aug-08 00:30N 55°17' E 020°09'611.1
2017-Aug-08 00:00N 55°14' E 020°02'611.0
2017-Aug-07 23:28N 55°10' E 019°55'510.9
2017-Aug-07 23:01N 55°06' E 019°48'611.0
2017-Aug-07 22:30N 55°02' E 019°41'611.2
2017-Aug-07 22:00N 54°59' E 019°34'611.4
2017-Aug-07 21:31N 54°55' E 019°27'611.5
2017-Aug-07 21:00N 54°51' E 019°19'611.6
2017-Aug-07 20:30N 54°47' E 019°12'611.4
2017-Aug-07 20:00N 54°43' E 019°04'611.1
2017-Aug-07 19:31N 54°39' E 018°57'611.6
2017-Aug-07 19:00N 54°34' E 018°52'510.5
2017-Aug-07 18:30N 54°32' E 018°44'  

Dump ship's entire track history